Wizard — WDC6082 — position and weather

sailwx.info

Track history (hours):
 
Tides and Currents Weather Stations Pressure Air Temp Water Temp Dewpoint Dewpoint Depression Visibility Wind Speed Wind Dir Waves Ship Positions

Wizard

Owner: K. H.Colburn Inc, Redmond, WA. More information available from US FCC via Universal Licensing System and Coast Guard Vessel Documentation Center.

Last reported at 2017-Feb-18 20:34 UTC. Time now 2017-May-24 21:38 UTC.
Position N 47°40' W 122°23'.
Warning: this ship's position is months out of date.

Length 52 m; draft 0.4 m.

MMSI: 5491.

Date/timePositionNaut miles runAvg speedWind from/ knotsBaromVisibWave heightAir tempDewpointWater temp
2017-Feb-18 20:34N 47°40' W 122°23'0 0.0
2017-Feb-18 19:34N 47°40' W 122°23'0 0.0
2017-Feb-18 18:34N 47°40' W 122°23'0 0.0
2017-Feb-18 17:34N 47°40' W 122°23'0 0.0
2017-Feb-18 16:34N 47°40' W 122°23'0 0.0
2017-Feb-18 15:34N 47°40' W 122°23'0 0.0
2017-Feb-18 14:34N 47°40' W 122°23'0 0.0
2017-Feb-18 13:34N 47°40' W 122°23'0 0.0
2017-Feb-18 12:34N 47°40' W 122°23'0 0.0
2017-Feb-18 11:33N 47°40' W 122°23'0 0.0
2017-Feb-18 10:34N 47°40' W 122°23'0 0.0
2017-Feb-18 09:34N 47°40' W 122°23'0 0.0
2017-Feb-18 08:33N 47°40' W 122°23'0 0.0
2017-Feb-18 07:34N 47°40' W 122°23'0 0.0
2017-Feb-18 06:34N 47°40' W 122°23'0 0.0
2017-Feb-18 05:33N 47°40' W 122°23'0 0.0
2017-Feb-18 04:34N 47°40' W 122°23'0 0.0
2017-Feb-18 03:34N 47°40' W 122°23'0 0.0
2017-Feb-18 02:34N 47°40' W 122°23'0 0.0
2017-Feb-18 01:34N 47°40' W 122°23'0 0.0
2017-Feb-18 00:34N 47°40' W 122°23'0 0.0
2017-Feb-17 23:34N 47°40' W 122°23'0 0.0
2017-Feb-17 22:33N 47°40' W 122°23'0 0.0
2017-Feb-17 21:33N 47°40' W 122°23'0 0.0
2017-Feb-17 20:34N 47°40' W 122°23'0 0.0
2017-Feb-17 19:34N 47°40' W 122°23'0 0.0
2017-Feb-17 18:34N 47°40' W 122°23'0 0.0
2017-Feb-17 17:34N 47°40' W 122°23'1 0.7
2017-Feb-17 16:34N 47°40' W 122°24'8 7.6
2017-Feb-17 15:34N 47°48' W 122°27'1010.2
2017-Feb-17 14:33N 47°57' W 122°34'1110.7
2017-Feb-17 13:33N 48°07' W 122°40'1111.0
2017-Feb-17 12:33N 48°11' W 122°55'1010.1
2017-Feb-17 11:33N 48°12' W 123°10'10 9.6
2017-Feb-17 10:33N 48°13' W 123°25'9 9.5
2017-Feb-17 09:34N 48°13' W 123°39'1010.0
2017-Feb-17 08:34N 48°14' W 123°54'1111.2
2017-Feb-17 07:34N 48°18' W 124°10'1111.1
2017-Feb-17 06:33N 48°22' W 124°25'1010.2
2017-Feb-17 05:33N 48°27' W 124°39'1010.0
2017-Feb-17 04:33N 48°28' W 124°54'10 9.7
2017-Feb-17 03:34N 48°29' W 125°08'9 9.2
2017-Feb-17 02:33N 48°31' W 125°22'9 9.3
2017-Feb-17 01:33N 48°34' W 125°35'9 9.4
2017-Feb-17 00:33N 48°38' W 125°47'9 9.2
2017-Feb-16 23:34N 48°42' W 126°00'9 9.0
2017-Feb-16 22:33N 48°45' W 126°12'9 9.0
2017-Feb-16 21:33N 48°49' W 126°25'  
Track history (hours):
 
Tides and Currents Weather Stations Pressure Air Temp Water Temp Dewpoint Dewpoint Depression Visibility Wind Speed Wind Dir Waves Ship Positions

Wizard

Owner: K. H.Colburn Inc, Redmond, WA. More information available from US FCC via Universal Licensing System and Coast Guard Vessel Documentation Center.

Last reported at 2017-Feb-18 20:34 UTC. Time now 2017-May-24 21:38 UTC.
Position N 47°40' W 122°23'.
Warning: this ship's position is months out of date.

Length 52 m; draft 0.4 m.

MMSI: 5491.

Date/timePositionNaut miles runAvg speedWind from/ knotsBaromVisibWave heightAir tempDewpointWater temp
2017-Feb-18 20:34N 47°40' W 122°23'0 0.0
2017-Feb-18 19:34N 47°40' W 122°23'0 0.0
2017-Feb-18 18:34N 47°40' W 122°23'0 0.0
2017-Feb-18 17:34N 47°40' W 122°23'0 0.0
2017-Feb-18 16:34N 47°40' W 122°23'0 0.0
2017-Feb-18 15:34N 47°40' W 122°23'0 0.0
2017-Feb-18 14:34N 47°40' W 122°23'0 0.0
2017-Feb-18 13:34N 47°40' W 122°23'0 0.0
2017-Feb-18 12:34N 47°40' W 122°23'0 0.0
2017-Feb-18 11:33N 47°40' W 122°23'0 0.0
2017-Feb-18 10:34N 47°40' W 122°23'0 0.0
2017-Feb-18 09:34N 47°40' W 122°23'0 0.0
2017-Feb-18 08:33N 47°40' W 122°23'0 0.0
2017-Feb-18 07:34N 47°40' W 122°23'0 0.0
2017-Feb-18 06:34N 47°40' W 122°23'0 0.0
2017-Feb-18 05:33N 47°40' W 122°23'0 0.0
2017-Feb-18 04:34N 47°40' W 122°23'0 0.0
2017-Feb-18 03:34N 47°40' W 122°23'0 0.0
2017-Feb-18 02:34N 47°40' W 122°23'0 0.0
2017-Feb-18 01:34N 47°40' W 122°23'0 0.0
2017-Feb-18 00:34N 47°40' W 122°23'0 0.0
2017-Feb-17 23:34N 47°40' W 122°23'0 0.0
2017-Feb-17 22:33N 47°40' W 122°23'0 0.0
2017-Feb-17 21:33N 47°40' W 122°23'0 0.0
2017-Feb-17 20:34N 47°40' W 122°23'0 0.0
2017-Feb-17 19:34N 47°40' W 122°23'0 0.0
2017-Feb-17 18:34N 47°40' W 122°23'0 0.0
2017-Feb-17 17:34N 47°40' W 122°23'1 0.7
2017-Feb-17 16:34N 47°40' W 122°24'8 7.6
2017-Feb-17 15:34N 47°48' W 122°27'1010.2
2017-Feb-17 14:33N 47°57' W 122°34'1110.7
2017-Feb-17 13:33N 48°07' W 122°40'1111.0
2017-Feb-17 12:33N 48°11' W 122°55'1010.1
2017-Feb-17 11:33N 48°12' W 123°10'10 9.6
2017-Feb-17 10:33N 48°13' W 123°25'9 9.5
2017-Feb-17 09:34N 48°13' W 123°39'1010.0
2017-Feb-17 08:34N 48°14' W 123°54'1111.2
2017-Feb-17 07:34N 48°18' W 124°10'1111.1
2017-Feb-17 06:33N 48°22' W 124°25'1010.2
2017-Feb-17 05:33N 48°27' W 124°39'1010.0
2017-Feb-17 04:33N 48°28' W 124°54'10 9.7
2017-Feb-17 03:34N 48°29' W 125°08'9 9.2
2017-Feb-17 02:33N 48°31' W 125°22'9 9.3
2017-Feb-17 01:33N 48°34' W 125°35'9 9.4
2017-Feb-17 00:33N 48°38' W 125°47'9 9.2
2017-Feb-16 23:34N 48°42' W 126°00'9 9.0
2017-Feb-16 22:33N 48°45' W 126°12'9 9.0
2017-Feb-16 21:33N 48°49' W 126°25'  

Dump ship's entire track history